Aviation Digital Data Service (ADDS)

Output produced by METARs form (0052 UTC 21 November 2017)
found at http://www.aviationweather.gov/adds/metars/
 
EPLL 210030Z VRB02KT 4400 -RASN BR BKN006 01/00 Q1012
TAF EPLL 202330Z 2100/2124 20005KT 9999 SCT020 
     PROB40 
     TEMPO 2100/2109 3000 BR BKN007 
     PROB40 
     TEMPO 2120/2124 3000 BR BKN005